createdAt,value
2018-12-27T00:00:11.439Z,35.70
2018-12-27T00:02:39.863Z,34.37
2018-12-27T00:05:08.268Z,35.13
2018-12-27T00:07:36.698Z,33.00
2018-12-27T00:10:05.848Z,36.67
2018-12-27T00:12:34.287Z,34.67
2018-12-27T00:15:02.772Z,33.00
2018-12-27T00:17:31.222Z,36.00
2018-12-27T00:19:59.648Z,33.93
2018-12-27T00:22:28.097Z,37.43
2018-12-27T00:24:56.503Z,39.20
2018-12-27T00:27:25.176Z,34.40
2018-12-27T00:29:53.853Z,37.13
2018-12-27T00:32:22.447Z,36.40
2018-12-27T00:34:51.021Z,35.27
2018-12-27T00:37:19.579Z,36.37
2018-12-27T00:39:48.187Z,36.67
2018-12-27T00:42:16.750Z,38.87
2018-12-27T00:44:45.336Z,38.33
2018-12-27T00:47:13.972Z,40.27
2018-12-27T00:49:42.555Z,39.53
2018-12-27T00:52:11.139Z,39.70
2018-12-27T00:54:39.949Z,40.23
2018-12-27T00:57:08.539Z,39.33
2018-12-27T00:59:37.095Z,39.43
2018-12-27T01:02:05.937Z,39.33
2018-12-27T01:04:34.515Z,39.63
2018-12-27T01:07:03.180Z,39.37
2018-12-27T01:09:31.867Z,40.93
2018-12-27T01:12:00.412Z,38.77
2018-12-27T01:14:28.995Z,37.03
2018-12-27T01:16:57.564Z,40.53
2018-12-27T01:19:26.412Z,36.80
2018-12-27T01:21:54.968Z,36.00
2018-12-27T01:24:23.544Z,36.77
2018-12-27T01:26:52.116Z,35.13
2018-12-27T01:29:20.704Z,38.00
2018-12-27T01:31:50.732Z,36.83
2018-12-27T01:34:19.443Z,36.27
2018-12-27T01:36:48.023Z,36.10
2018-12-27T01:39:16.571Z,36.77
2018-12-27T01:41:45.384Z,34.40
2018-12-27T01:44:13.948Z,36.20
2018-12-27T01:46:42.528Z,35.07
2018-12-27T01:49:11.094Z,36.43
2018-12-27T01:51:39.685Z,35.47
2018-12-27T01:54:08.248Z,34.97
2018-12-27T01:56:36.845Z,35.17
2018-12-27T01:59:05.412Z,34.97
2018-12-27T02:01:33.995Z,35.90
2018-12-27T02:04:02.579Z,32.77
2018-12-27T02:06:31.181Z,32.10
2018-12-27T02:08:59.848Z,32.87
2018-12-27T02:11:28.451Z,32.63
2018-12-27T02:13:57.036Z,33.57
2018-12-27T02:16:25.618Z,33.30
2018-12-27T02:18:54.207Z,33.50
2018-12-27T02:21:22.827Z,34.20
2018-12-27T02:23:51.394Z,33.23
2018-12-27T02:26:19.971Z,33.33
2018-12-27T02:28:48.538Z,32.07
2018-12-27T02:31:17.141Z,32.93
2018-12-27T02:33:45.712Z,33.80
2018-12-27T02:36:14.303Z,34.23
2018-12-27T02:38:42.883Z,34.83
2018-12-27T02:41:11.467Z,35.80
2018-12-27T02:43:40.063Z,33.70
2018-12-27T02:46:08.714Z,32.53
2018-12-27T02:48:37.310Z,33.30
2018-12-27T02:51:05.880Z,35.57
2018-12-27T02:53:34.478Z,35.10
2018-12-27T02:56:03.041Z,35.53
2018-12-27T02:58:31.603Z,35.17
2018-12-27T03:01:00.193Z,33.93
2018-12-27T03:03:28.740Z,35.83
2018-12-27T03:05:57.319Z,35.80
2018-12-27T03:08:25.915Z,33.70
2018-12-27T03:10:54.508Z,35.03
2018-12-27T03:13:23.132Z,36.17
2018-12-27T03:15:51.703Z,35.67
2018-12-27T03:18:20.529Z,34.17
2018-12-27T03:20:49.129Z,33.63
2018-12-27T03:23:17.695Z,33.70
2018-12-27T03:25:46.287Z,32.73
2018-12-27T03:28:14.864Z,34.73
2018-12-27T03:30:43.464Z,35.20
2018-12-27T03:33:12.010Z,34.60
2018-12-27T03:35:40.598Z,34.57
2018-12-27T03:38:09.405Z,33.60
2018-12-27T03:40:37.987Z,33.47
2018-12-27T03:43:06.566Z,33.57
2018-12-27T03:45:35.160Z,33.23
2018-12-27T03:48:03.695Z,33.63
2018-12-27T03:50:32.287Z,33.40
2018-12-27T03:53:00.850Z,33.17
2018-12-27T03:55:29.417Z,32.37
2018-12-27T03:57:58.003Z,31.10
2018-12-27T04:00:26.567Z,29.77
2018-12-27T04:02:55.172Z,30.00
2018-12-27T04:05:23.976Z,30.93
2018-12-27T04:07:52.558Z,29.80
2018-12-27T04:10:21.144Z,30.77
2018-12-27T04:12:49.701Z,30.17
2018-12-27T04:15:18.126Z,28.83
2018-12-27T04:17:46.535Z,30.03
2018-12-27T04:20:14.941Z,31.67
2018-12-27T04:22:43.371Z,28.80
2018-12-27T04:25:12.192Z,29.33
2018-12-27T04:27:40.588Z,31.10
2018-12-27T04:30:09.023Z,28.87
2018-12-27T04:32:38.197Z,30.50
2018-12-27T04:35:06.760Z,30.00
2018-12-27T04:37:35.174Z,30.77
2018-12-27T04:40:04.288Z,31.70
2018-12-27T04:42:33.040Z,32.93
2018-12-27T04:45:01.458Z,33.20
2018-12-27T04:47:29.884Z,31.83
2018-12-27T04:49:58.288Z,32.30
2018-12-27T04:52:26.732Z,31.93
2018-12-27T04:54:55.147Z,32.40
2018-12-27T04:57:23.570Z,34.67
2018-12-27T04:59:52.004Z,34.10
2018-12-27T05:02:20.439Z,33.13
2018-12-27T05:04:48.837Z,34.70
2018-12-27T05:07:17.259Z,34.90
2018-12-27T05:09:45.675Z,33.93
2018-12-27T05:12:14.122Z,34.63
2018-12-27T05:14:42.593Z,34.00
2018-12-27T05:17:11.018Z,32.63
2018-12-27T05:19:39.422Z,35.00
2018-12-27T05:22:07.844Z,35.43
2018-12-27T05:24:36.252Z,36.53
2018-12-27T05:27:04.673Z,34.70
2018-12-27T05:29:33.091Z,35.57
2018-12-27T05:32:01.508Z,35.67
2018-12-27T05:34:29.951Z,33.23
2018-12-27T05:36:58.367Z,34.03
2018-12-27T05:39:26.788Z,36.47
2018-12-27T05:41:55.191Z,35.77
2018-12-27T05:44:23.615Z,34.40
2018-12-27T05:46:52.052Z,35.03
2018-12-27T05:49:20.487Z,35.60
2018-12-27T05:51:49.137Z,35.87
2018-12-27T05:54:17.583Z,39.27
2018-12-27T05:56:45.997Z,35.40
2018-12-27T05:59:14.403Z,36.80
2018-12-27T06:01:42.843Z,35.63
2018-12-27T06:04:11.260Z,36.03
2018-12-27T06:06:39.904Z,36.43
2018-12-27T06:09:08.342Z,34.70
2018-12-27T06:11:36.747Z,32.67
2018-12-27T06:14:05.187Z,34.33
2018-12-27T06:16:33.588Z,34.13
2018-12-27T06:19:02.012Z,35.10
2018-12-27T06:21:30.465Z,35.43
2018-12-27T06:23:58.853Z,34.43
2018-12-27T06:26:27.268Z,32.83
2018-12-27T06:28:55.699Z,34.93
2018-12-27T06:31:24.112Z,35.00
2018-12-27T06:33:52.549Z,32.23
2018-12-27T06:36:20.968Z,34.30
2018-12-27T06:38:49.416Z,34.50
2018-12-27T06:41:17.851Z,34.20
2018-12-27T06:43:46.275Z,32.97
2018-12-27T06:46:14.933Z,32.23
2018-12-27T06:48:43.334Z,31.03
2018-12-27T06:51:11.769Z,33.03
2018-12-27T06:53:40.173Z,33.33
2018-12-27T06:56:08.587Z,30.57
2018-12-27T06:58:37.827Z,30.20
2018-12-27T07:01:06.496Z,31.50
2018-12-27T07:03:34.903Z,31.77
2018-12-27T07:06:03.333Z,31.23
2018-12-27T07:08:31.733Z,30.90
2018-12-27T07:11:00.178Z,30.77
2018-12-27T07:13:28.640Z,30.97
2018-12-27T07:15:57.104Z,30.60
2018-12-27T07:18:25.519Z,30.13
2018-12-27T07:20:53.955Z,30.63
2018-12-27T07:23:22.635Z,29.10
2018-12-27T07:25:51.049Z,30.37
2018-12-27T07:28:19.456Z,30.60
2018-12-27T07:30:47.963Z,30.97
2018-12-27T07:33:16.411Z,30.47
2018-12-27T07:35:44.795Z,30.93
2018-12-27T07:38:13.288Z,30.70
2018-12-27T07:40:41.739Z,29.67
2018-12-27T07:43:10.148Z,30.30
2018-12-27T07:45:38.572Z,29.37
2018-12-27T07:48:07.000Z,29.50
2018-12-27T07:50:35.432Z,29.67
2018-12-27T07:53:03.859Z,29.43
2018-12-27T07:55:32.287Z,29.43
2018-12-27T07:58:00.710Z,29.90
2018-12-27T08:00:29.112Z,31.70
2018-12-27T08:02:57.547Z,33.40
2018-12-27T08:05:26.220Z,31.13
2018-12-27T08:07:54.645Z,31.33
2018-12-27T08:10:23.104Z,32.23
2018-12-27T08:12:51.517Z,33.13
2018-12-27T08:15:19.913Z,34.30
2018-12-27T08:17:48.340Z,33.97
2018-12-27T08:20:16.759Z,33.30
2018-12-27T08:22:45.171Z,35.30
2018-12-27T08:25:13.607Z,34.47
2018-12-27T08:27:42.004Z,34.93
2018-12-27T08:30:10.517Z,34.23
2018-12-27T08:32:38.947Z,35.63
2018-12-27T08:35:11.424Z,36.70
2018-12-27T08:37:37.560Z,37.87
2018-12-27T08:40:06.178Z,37.80
2018-12-27T08:42:34.572Z,38.63
2018-12-27T08:45:03.567Z,40.30
2018-12-27T08:47:31.991Z,40.17
2018-12-27T08:50:00.406Z,40.67
2018-12-27T08:52:28.838Z,41.07
2018-12-27T08:54:57.288Z,39.97
2018-12-27T08:57:25.758Z,41.63
2018-12-27T08:59:54.168Z,42.93
2018-12-27T09:02:23.793Z,43.67
2018-12-27T09:04:52.236Z,42.67
2018-12-27T09:07:20.750Z,44.77
2018-12-27T09:09:49.188Z,44.40
2018-12-27T09:12:17.621Z,46.80
2018-12-27T09:14:46.034Z,44.37
2018-12-27T09:17:14.456Z,48.20
2018-12-27T09:19:42.869Z,45.30
2018-12-27T09:22:11.314Z,48.43
2018-12-27T09:24:39.716Z,46.13
2018-12-27T09:27:08.157Z,46.53
2018-12-27T09:29:36.560Z,46.57
2018-12-27T09:32:04.997Z,45.03
2018-12-27T09:34:33.415Z,48.43
2018-12-27T09:37:01.835Z,45.80
2018-12-27T09:39:30.257Z,47.00
2018-12-27T09:41:58.692Z,47.90
2018-12-27T09:44:27.106Z,44.53
2018-12-27T09:46:55.541Z,45.37
2018-12-27T09:49:24.011Z,47.53
2018-12-27T09:51:52.446Z,46.27
2018-12-27T09:54:20.880Z,48.43
2018-12-27T09:56:49.279Z,48.60
2018-12-27T09:59:19.540Z,46.83
2018-12-27T10:01:48.012Z,44.23
2018-12-27T10:04:16.753Z,47.57
2018-12-27T10:06:45.183Z,46.57
2018-12-27T10:09:13.613Z,49.90
2018-12-27T10:11:42.023Z,48.23
2018-12-27T10:14:10.448Z,48.27
2018-12-27T10:16:38.889Z,49.03
2018-12-27T10:19:07.325Z,46.77
2018-12-27T10:21:35.785Z,46.80
2018-12-27T10:24:04.196Z,48.77
2018-12-27T10:26:32.607Z,47.53
2018-12-27T10:29:01.047Z,49.23
2018-12-27T10:31:29.486Z,48.33
2018-12-27T10:33:57.891Z,46.10
2018-12-27T10:36:26.315Z,46.87
2018-12-27T10:38:57.100Z,44.80
2018-12-27T10:41:25.513Z,46.33
2018-12-27T10:43:53.948Z,46.40
2018-12-27T10:46:22.372Z,49.40
2018-12-27T10:48:50.783Z,48.47
2018-12-27T10:51:19.228Z,49.13
2018-12-27T10:53:47.640Z,46.73
2018-12-27T10:56:16.097Z,50.07
2018-12-27T10:58:44.542Z,50.07
2018-12-27T11:01:13.772Z,50.03
2018-12-27T11:03:42.256Z,46.83
2018-12-27T11:06:10.680Z,48.60
2018-12-27T11:08:39.120Z,46.10
2018-12-27T11:11:07.527Z,49.03
2018-12-27T11:13:35.976Z,50.70
2018-12-27T11:16:04.404Z,50.03
2018-12-27T11:18:32.826Z,50.87
2018-12-27T11:21:01.236Z,48.77
2018-12-27T11:23:29.668Z,50.50
2018-12-27T11:25:58.075Z,51.00
2018-12-27T11:28:26.516Z,49.90
2018-12-27T11:30:58.064Z,50.00
2018-12-27T11:33:26.825Z,50.83
2018-12-27T11:35:55.872Z,52.97
2018-12-27T11:38:24.505Z,52.40
2018-12-27T11:40:53.181Z,51.00
2018-12-27T11:43:21.651Z,47.37
2018-12-27T11:45:50.092Z,51.57
2018-12-27T11:48:18.503Z,51.00
2018-12-27T11:50:46.940Z,50.20
2018-12-27T11:53:15.339Z,49.87
2018-12-27T11:55:44.369Z,51.53
2018-12-27T11:58:12.813Z,51.27
2018-12-27T12:00:41.222Z,53.50
2018-12-27T12:03:09.660Z,51.00
2018-12-27T12:05:38.093Z,51.30
2018-12-27T12:08:06.753Z,54.97
2018-12-27T12:10:35.452Z,53.43
2018-12-27T12:13:03.895Z,53.73
2018-12-27T12:15:32.549Z,51.47
2018-12-27T12:18:01.054Z,52.43
2018-12-27T12:20:29.460Z,54.07
2018-12-27T12:22:57.907Z,53.63
2018-12-27T12:25:26.319Z,55.13
2018-12-27T12:27:54.766Z,53.13
2018-12-27T12:30:23.176Z,53.37
2018-12-27T12:32:51.579Z,56.53
2018-12-27T12:35:20.025Z,58.10
2018-12-27T12:37:48.763Z,59.57
2018-12-27T12:40:17.194Z,57.00
2018-12-27T12:42:45.596Z,57.83
2018-12-27T12:45:14.044Z,54.20
2018-12-27T12:47:42.447Z,55.70
2018-12-27T12:50:11.874Z,56.27
2018-12-27T12:52:40.288Z,55.90
2018-12-27T12:55:08.717Z,57.00
2018-12-27T12:57:37.147Z,57.13
2018-12-27T13:00:08.590Z,56.20
2018-12-27T13:02:37.021Z,56.13
2018-12-27T13:05:06.017Z,57.10
2018-12-27T13:07:35.674Z,54.20
2018-12-27T13:10:04.504Z,55.97
2018-12-27T13:12:32.935Z,55.47
2018-12-27T13:15:01.612Z,54.93
2018-12-27T13:17:30.067Z,53.97
2018-12-27T13:19:58.478Z,57.10
2018-12-27T13:22:27.444Z,54.27
2018-12-27T13:24:55.900Z,51.60
2018-12-27T13:27:24.311Z,53.17
2018-12-27T13:29:53.000Z,55.23
2018-12-27T13:32:21.441Z,54.23
2018-12-27T13:34:49.881Z,49.60
2018-12-27T13:37:18.300Z,52.43
2018-12-27T13:39:46.699Z,50.97
2018-12-27T13:42:15.132Z,52.53
2018-12-27T13:44:44.271Z,52.53
2018-12-27T13:47:12.830Z,51.10
2018-12-27T13:49:41.381Z,52.67
2018-12-27T13:52:09.791Z,52.80
2018-12-27T13:54:38.217Z,52.00
2018-12-27T13:57:06.619Z,53.30
2018-12-27T13:59:35.048Z,52.90
2018-12-27T14:02:04.196Z,54.67
2018-12-27T14:04:33.920Z,53.80
2018-12-27T14:07:02.400Z,52.87
2018-12-27T14:09:31.548Z,50.77
2018-12-27T14:12:00.940Z,50.77
2018-12-27T14:14:29.364Z,53.27
2018-12-27T14:16:57.800Z,50.93
2018-12-27T14:19:26.204Z,53.70
2018-12-27T14:21:54.612Z,52.73
2018-12-27T14:24:23.040Z,51.37
2018-12-27T14:26:51.462Z,48.90
2018-12-27T14:29:19.902Z,50.97
2018-12-27T14:31:48.305Z,49.23
2018-12-27T14:34:16.816Z,51.37
2018-12-27T14:36:45.234Z,49.40
2018-12-27T14:39:13.668Z,51.53
2018-12-27T14:41:42.103Z,47.67
2018-12-27T14:44:10.512Z,50.70
2018-12-27T14:46:38.965Z,51.13
2018-12-27T14:49:07.395Z,49.97
2018-12-27T14:51:35.896Z,50.07
2018-12-27T14:54:04.323Z,50.27
2018-12-27T14:56:32.728Z,50.07
2018-12-27T14:59:02.392Z,48.73
2018-12-27T15:01:32.518Z,49.13
2018-12-27T15:04:01.094Z,47.60
2018-12-27T15:06:29.511Z,49.20
2018-12-27T15:08:57.956Z,48.97
2018-12-27T15:11:27.805Z,49.97
2018-12-27T15:13:56.308Z,49.77
2018-12-27T15:16:25.883Z,49.27
2018-12-27T15:18:54.291Z,48.57
2018-12-27T15:21:22.752Z,48.17
2018-12-27T15:23:51.242Z,50.40
2018-12-27T15:26:19.684Z,51.63
2018-12-27T15:28:48.367Z,49.40
2018-12-27T15:31:16.841Z,50.80
2018-12-27T15:33:46.217Z,49.00
2018-12-27T15:36:14.952Z,51.43
2018-12-27T15:38:44.629Z,51.30
2018-12-27T15:41:13.055Z,51.50
2018-12-27T15:43:41.512Z,51.37
2018-12-27T15:46:09.921Z,52.73
2018-12-27T15:48:38.372Z,50.53
2018-12-27T15:51:06.884Z,50.47
2018-12-27T15:53:35.349Z,54.07
2018-12-27T15:56:04.448Z,50.57
2018-12-27T15:58:32.928Z,48.67
2018-12-27T16:01:03.923Z,51.90
2018-12-27T16:03:36.232Z,50.73
2018-12-27T16:06:06.260Z,52.10
2018-12-27T16:08:34.671Z,52.97
2018-12-27T16:11:04.135Z,50.80
2018-12-27T16:13:32.524Z,50.50
2018-12-27T16:16:00.992Z,50.80
2018-12-27T16:18:29.392Z,52.83
2018-12-27T16:20:57.839Z,55.37
2018-12-27T16:23:26.259Z,53.90
2018-12-27T16:25:54.685Z,53.50
2018-12-27T16:28:23.101Z,53.03
2018-12-27T16:30:51.534Z,55.33
2018-12-27T16:33:19.964Z,53.70
2018-12-27T16:35:48.365Z,53.87
2018-12-27T16:38:17.043Z,60.10
2018-12-27T16:40:45.428Z,52.07
2018-12-27T16:43:13.871Z,55.63
2018-12-27T16:45:42.315Z,54.80
2018-12-27T16:48:10.778Z,52.47
2018-12-27T16:50:40.784Z,52.67
2018-12-27T16:53:09.235Z,55.27
2018-12-27T16:55:38.333Z,54.13
2018-12-27T16:58:06.860Z,52.93
2018-12-27T17:00:35.340Z,55.70
2018-12-27T17:03:07.509Z,59.67
2018-12-27T17:05:35.958Z,55.23
2018-12-27T17:08:04.437Z,56.63
2018-12-27T17:10:32.848Z,56.63
2018-12-27T17:13:01.294Z,58.93
2018-12-27T17:15:29.951Z,54.40
2018-12-27T17:17:58.380Z,57.07
2018-12-27T17:20:26.807Z,58.03
2018-12-27T17:22:55.472Z,60.77
2018-12-27T17:25:23.892Z,60.20
2018-12-27T17:27:52.309Z,58.47
2018-12-27T17:30:20.792Z,56.67
2018-12-27T17:32:49.191Z,61.10
2018-12-27T17:35:17.864Z,62.03
2018-12-27T17:37:46.311Z,57.03
2018-12-27T17:40:14.732Z,58.90
2018-12-27T17:42:43.167Z,57.70
2018-12-27T17:45:11.601Z,58.77
2018-12-27T17:47:40.072Z,58.97
2018-12-27T17:50:08.495Z,56.33
2018-12-27T17:52:36.923Z,58.60
2018-12-27T17:55:05.391Z,61.30
2018-12-27T17:57:33.829Z,62.13
2018-12-27T18:00:02.354Z,59.67
2018-12-27T18:02:30.756Z,59.90
2018-12-27T18:04:59.187Z,61.17
2018-12-27T18:07:30.688Z,59.33
2018-12-27T18:09:57.732Z,60.53
2018-12-27T18:12:26.415Z,63.30
2018-12-27T18:14:59.664Z,61.97
2018-12-27T18:17:28.100Z,59.40
2018-12-27T18:19:56.552Z,60.07
2018-12-27T18:22:26.491Z,60.67
2018-12-27T18:24:55.174Z,59.10
2018-12-27T18:27:25.191Z,59.00
2018-12-27T18:29:53.618Z,60.60
2018-12-27T18:32:23.785Z,59.73
2018-12-27T18:34:52.263Z,62.73
2018-12-27T18:37:20.688Z,61.70
2018-12-27T18:39:49.115Z,59.40
2018-12-27T18:42:17.562Z,60.03
2018-12-27T18:44:45.992Z,60.70
2018-12-27T18:47:14.434Z,61.93
2018-12-27T18:49:42.859Z,59.97
2018-12-27T18:52:11.281Z,63.07
2018-12-27T18:54:39.712Z,55.47
2018-12-27T18:57:08.159Z,63.60
2018-12-27T18:59:36.589Z,60.60
2018-12-27T19:02:05.023Z,59.30
2018-12-27T19:04:33.424Z,59.80
2018-12-27T19:07:01.876Z,60.77
2018-12-27T19:09:30.292Z,63.83
2018-12-27T19:12:34.608Z,59.17
2018-12-27T19:15:03.875Z,62.97
2018-12-27T19:17:34.549Z,66.63
2018-12-27T19:20:02.971Z,64.53
2018-12-27T19:22:34.543Z,66.70
2018-12-27T19:25:02.962Z,64.27
2018-12-27T19:27:31.453Z,63.53
2018-12-27T19:30:00.197Z,66.73
2018-12-27T19:32:28.600Z,61.83
2018-12-27T19:34:57.037Z,67.03
2018-12-27T19:37:25.445Z,65.07
2018-12-27T19:39:53.895Z,68.23
2018-12-27T19:42:22.304Z,61.60
2018-12-27T19:44:50.758Z,66.30
2018-12-27T19:47:19.183Z,65.80
2018-12-27T19:49:47.615Z,67.63
2018-12-27T19:52:16.053Z,66.37
2018-12-27T19:54:44.470Z,64.93
2018-12-27T19:57:12.891Z,66.20
2018-12-27T19:59:41.380Z,67.20
2018-12-27T20:02:09.841Z,69.70
2018-12-27T20:04:38.251Z,69.50
2018-12-27T20:07:06.764Z,66.70
2018-12-27T20:09:35.191Z,65.07
2018-12-27T20:12:03.888Z,66.80
2018-12-27T20:14:33.903Z,67.53
2018-12-27T20:17:02.349Z,63.60
2018-12-27T20:19:30.778Z,67.90
2018-12-27T20:21:59.252Z,71.17
2018-12-27T20:24:27.660Z,65.60
2018-12-27T20:26:56.100Z,70.53
2018-12-27T20:29:24.617Z,69.17
2018-12-27T20:31:53.040Z,68.67
2018-12-27T20:34:21.449Z,67.23
2018-12-27T20:36:49.892Z,67.53
2018-12-27T20:39:18.287Z,67.60
2018-12-27T20:41:46.755Z,64.00
2018-12-27T20:44:15.182Z,68.07
2018-12-27T20:46:43.636Z,68.50
2018-12-27T20:49:12.036Z,67.50
2018-12-27T20:51:40.472Z,69.00
2018-12-27T20:54:08.876Z,70.70
2018-12-27T20:56:37.304Z,66.67
2018-12-27T20:59:05.744Z,69.73
2018-12-27T21:01:34.147Z,71.43
2018-12-27T21:04:02.588Z,71.10
2018-12-27T21:06:31.036Z,73.77
2018-12-27T21:08:59.459Z,71.00
2018-12-27T21:11:27.888Z,73.57
2018-12-27T21:13:56.340Z,73.83
2018-12-27T21:16:24.767Z,68.73
2018-12-27T21:18:53.232Z,68.80
2018-12-27T21:21:21.668Z,72.13
2018-12-27T21:23:50.071Z,72.77
2018-12-27T21:26:20.048Z,69.10
2018-12-27T21:28:48.451Z,73.97
2018-12-27T21:31:16.891Z,71.60
2018-12-27T21:33:45.305Z,70.80
2018-12-27T21:36:14.039Z,75.50
2018-12-27T21:38:42.576Z,71.63
2018-12-27T21:41:11.924Z,70.03
2018-12-27T21:43:40.363Z,72.60
2018-12-27T21:46:08.824Z,70.90
2018-12-27T21:48:37.229Z,72.57
2018-12-27T21:51:05.645Z,74.70
2018-12-27T21:53:34.383Z,74.70
2018-12-27T21:56:02.853Z,71.97
2018-12-27T21:58:31.276Z,73.97
2018-12-27T22:00:59.731Z,75.80
2018-12-27T22:03:28.176Z,74.00
2018-12-27T22:05:56.606Z,74.67
2018-12-27T22:08:28.445Z,71.93
2018-12-27T22:10:55.275Z,74.03
2018-12-27T22:13:24.273Z,73.40
2018-12-27T22:15:53.349Z,71.10
2018-12-27T22:18:22.005Z,68.37
2018-12-27T22:20:50.436Z,71.77
2018-12-27T22:23:18.836Z,72.73
2018-12-27T22:25:47.497Z,72.23
2018-12-27T22:28:15.923Z,73.87
2018-12-27T22:30:44.368Z,69.50
2018-12-27T22:33:12.812Z,76.27
2018-12-27T22:35:41.240Z,73.20
2018-12-27T22:38:09.660Z,72.17
2018-12-27T22:40:38.079Z,73.03
2018-12-27T22:43:06.541Z,72.63
2018-12-27T22:45:34.971Z,74.00
2018-12-27T22:48:03.420Z,73.10
2018-12-27T22:50:31.824Z,78.60
2018-12-27T22:53:00.259Z,73.10
2018-12-27T22:55:28.673Z,76.07
2018-12-27T22:57:57.103Z,74.00
2018-12-27T23:00:27.823Z,73.60
2018-12-27T23:02:56.281Z,74.93
2018-12-27T23:05:24.709Z,70.60
2018-12-27T23:07:53.129Z,71.20
2018-12-27T23:10:21.574Z,70.93
2018-12-27T23:12:50.007Z,74.73
2018-12-27T23:15:18.415Z,71.33
2018-12-27T23:17:47.076Z,74.03
2018-12-27T23:20:15.480Z,72.03
2018-12-27T23:22:45.550Z,75.80
2018-12-27T23:25:14.199Z,76.73
2018-12-27T23:27:42.641Z,72.93
2018-12-27T23:30:11.071Z,71.67
2018-12-27T23:32:39.496Z,74.87
2018-12-27T23:35:09.160Z,71.93
2018-12-27T23:37:37.575Z,72.47
2018-12-27T23:40:06.701Z,71.60
2018-12-27T23:42:35.349Z,74.40
2018-12-27T23:45:04.098Z,75.97
2018-12-27T23:47:32.508Z,72.97
2018-12-27T23:50:01.504Z,69.90
2018-12-27T23:52:29.963Z,69.43
2018-12-27T23:54:58.394Z,71.73
2018-12-27T23:57:26.812Z,74.50
2018-12-27T23:59:55.224Z,74.43
